• Join FlightAware (Why Join?)
  • Login
  • US Flag 
06:35AM EDT


 

Airport Tracker/Info


-or-


 

Live Flight TrackerFlight Track Log ✈ EGF3149 ✈ 18-Jul-2013 ✈ KPIA - KORD

Flight Track Log - Related Links

Times and Time Zones

All times are in EDT time to prevent confusion due to time zone crossing. See the EGF3149 flight status page for this flight to view local times or setup timezone preferences in your user account.

Time Position Orientation Groundspeed Altitude Reporting Facility
EDT Latitude Longitude Course Direction KTS MPH feet Rate Location/Type
12:14PM 40.8176 -89.6465 North  Level FlightAware Approximate
12:14PM 40.6508 -89.7717 302° West 257 296 4,800  Level Chicago Center
12:15PM 40.9024 -89.6327 11° North  Level FlightAware Approximate
12:15PM 40.7258 -89.7275 24° Northeast 257 296 8,200  Level Chicago Center
12:16PM 40.9864 -89.6117 11° North  Level FlightAware Approximate
12:16PM 40.8000 -89.7047 13° North 275 316 10,100  Level Chicago Center
12:17PM 41.0710 -89.5965 North  Level FlightAware Approximate
12:17PM 40.8886 -89.6764 14° North 319 367 11,300  Level Chicago Center
12:18PM 41.1528 -89.5764 62° Northeast  Level FlightAware Approximate
12:18PM 40.9850 -89.6442 14° North 347 399 12,500  Level Chicago Center
12:19PM 41.0856 -89.6117 14° North 368 423 14,000 1,200 Climbing Chicago Center
12:20PM 41.1864 -89.5231 33° Northeast 383 441 15,000 480 Climbing Chicago Center
12:21PM 41.2367 -89.4011 61° Northeast 379 436 15,000  Level Chicago Center
12:22PM 41.2853 -89.2781 62° Northeast 376 433 15,000 -180 Level Chicago Center
12:23PM 41.3378 -89.1458 62° Northeast 383 441 14,700 -720 Descending Chicago Center
12:24PM 41.3872 -89.0206 62° Northeast 384 442 13,500 -1,200 Descending Chicago Center
12:25PM 41.4361 -88.8981 62° Northeast 377 434 12,300 -1,200 Descending Chicago Center
12:26PM 41.4828 -88.7800 62° Northeast 364 419 11,100 -660 Descending Chicago Center
12:27PM 41.5397 -88.6350 62° Northeast 370 426 11,000 -60 Descending Chicago Center
12:28PM 41.5972 -88.5186 57° Northeast 379 436 11,000 -540 Level Chicago Center
12:30PM 41.6644 -88.4147 49° Northeast 370 426 10,000 -540 Descending Chicago Center
12:31PM 41.7300 -88.3122 49° Northeast 364 419 10,000 -300 Level Chicago Center
12:32PM 41.7881 -88.2208 50° Northeast 325 374 9,500 -1,260 Descending Chicago Center
12:33PM 41.8381 -88.1389 51° Northeast 291 335 7,500 -1,260 Descending Chicago Center
12:34PM 41.8744 -88.0197 68° East 289 333 7,000 -240 Descending Chicago Center
12:35PM 41.8833 -87.9167 83° East 270 311 7,000  Level Chicago TRACON
12:36PM 41.8853 -87.8253 88° East 252 290 7,000 -780 Level Chicago Center
12:37PM 41.8881 -87.7400 87° East 236 272 5,500 -1,500 Descending Chicago Center